sensor_id;sensor_type;location;lat;lon;timestamp;P1;durP1;ratioP1;P2;durP2;ratioP2
938;SDS011;456;53.584;9.968;2023-06-19T00:00:56;5.53;;;5.07;;
938;SDS011;456;53.584;9.968;2023-06-19T00:03:22;5.77;;;5.27;;
938;SDS011;456;53.584;9.968;2023-06-19T00:05:47;5.83;;;5.33;;
938;SDS011;456;53.584;9.968;2023-06-19T00:08:13;5.93;;;5.43;;
938;SDS011;456;53.584;9.968;2023-06-19T00:10:38;5.83;;;5.33;;
938;SDS011;456;53.584;9.968;2023-06-19T00:13:04;6.37;;;5.87;;
938;SDS011;456;53.584;9.968;2023-06-19T00:15:29;5.30;;;4.80;;
938;SDS011;456;53.584;9.968;2023-06-19T00:17:56;4.97;;;4.60;;
938;SDS011;456;53.584;9.968;2023-06-19T00:20:22;6.00;;;5.57;;
938;SDS011;456;53.584;9.968;2023-06-19T00:22:49;5.97;;;5.47;;
938;SDS011;456;53.584;9.968;2023-06-19T00:25:17;6.30;;;5.80;;
938;SDS011;456;53.584;9.968;2023-06-19T00:27:44;6.60;;;6.10;;
938;SDS011;456;53.584;9.968;2023-06-19T00:30:10;5.57;;;5.17;;
938;SDS011;456;53.584;9.968;2023-06-19T00:32:36;5.60;;;5.20;;
938;SDS011;456;53.584;9.968;2023-06-19T00:35:11;6.07;;;5.57;;
938;SDS011;456;53.584;9.968;2023-06-19T00:37:43;6.43;;;5.90;;
938;SDS011;456;53.584;9.968;2023-06-19T00:40:31;5.80;;;5.40;;
938;SDS011;456;53.584;9.968;2023-06-19T00:42:56;6.23;;;5.73;;
938;SDS011;456;53.584;9.968;2023-06-19T00:45:22;5.57;;;5.17;;
938;SDS011;456;53.584;9.968;2023-06-19T00:47:49;6.10;;;5.60;;
938;SDS011;456;53.584;9.968;2023-06-19T00:50:16;6.43;;;5.90;;
938;SDS011;456;53.584;9.968;2023-06-19T00:52:42;6.17;;;5.70;;
938;SDS011;456;53.584;9.968;2023-06-19T00:55:08;5.77;;;5.37;;
938;SDS011;456;53.584;9.968;2023-06-19T00:57:35;6.20;;;5.70;;
938;SDS011;456;53.584;9.968;2023-06-19T01:00:02;6.10;;;5.60;;
938;SDS011;456;53.584;9.968;2023-06-19T01:02:32;6.00;;;5.50;;
938;SDS011;456;53.584;9.968;2023-06-19T01:04:58;7.10;;;6.57;;
938;SDS011;456;53.584;9.968;2023-06-19T01:10:26;6.60;;;6.00;;
938;SDS011;456;53.584;9.968;2023-06-19T01:13:28;7.00;;;6.50;;
938;SDS011;456;53.584;9.968;2023-06-19T01:15:57;7.00;;;6.47;;
938;SDS011;456;53.584;9.968;2023-06-19T01:18:24;6.67;;;6.17;;
938;SDS011;456;53.584;9.968;2023-06-19T01:20:51;6.83;;;6.33;;
938;SDS011;456;53.584;9.968;2023-06-19T01:23:17;7.03;;;6.43;;
938;SDS011;456;53.584;9.968;2023-06-19T01:25:43;6.80;;;6.30;;
938;SDS011;456;53.584;9.968;2023-06-19T01:28:09;6.80;;;6.30;;
938;SDS011;456;53.584;9.968;2023-06-19T01:30:36;7.03;;;6.33;;
938;SDS011;456;53.584;9.968;2023-06-19T01:33:06;6.47;;;5.97;;
938;SDS011;456;53.584;9.968;2023-06-19T01:35:38;7.17;;;6.67;;
938;SDS011;456;53.584;9.968;2023-06-19T01:38:06;7.40;;;6.80;;
938;SDS011;456;53.584;9.968;2023-06-19T01:40:33;6.90;;;6.40;;
938;SDS011;456;53.584;9.968;2023-06-19T01:43:00;6.73;;;6.23;;
938;SDS011;456;53.584;9.968;2023-06-19T01:45:27;6.90;;;6.40;;
938;SDS011;456;53.584;9.968;2023-06-19T01:47:54;6.93;;;6.40;;
938;SDS011;456;53.584;9.968;2023-06-19T01:50:21;8.30;;;7.60;;
938;SDS011;456;53.584;9.968;2023-06-19T01:52:47;7.50;;;6.80;;
938;SDS011;456;53.584;9.968;2023-06-19T01:55:13;6.90;;;6.40;;
938;SDS011;456;53.584;9.968;2023-06-19T01:57:39;7.53;;;6.93;;
938;SDS011;456;53.584;9.968;2023-06-19T02:00:06;7.67;;;7.07;;
938;SDS011;456;53.584;9.968;2023-06-19T02:02:35;8.23;;;7.53;;
938;SDS011;456;53.584;9.968;2023-06-19T02:05:01;8.20;;;6.87;;
938;SDS011;456;53.584;9.968;2023-06-19T02:07:27;7.87;;;7.27;;
938;SDS011;456;53.584;9.968;2023-06-19T02:09:52;7.97;;;7.37;;
938;SDS011;456;53.584;9.968;2023-06-19T02:12:18;8.80;;;8.00;;
938;SDS011;456;53.584;9.968;2023-06-19T02:14:44;8.13;;;7.47;;
938;SDS011;456;53.584;9.968;2023-06-19T02:17:09;7.50;;;6.90;;
938;SDS011;456;53.584;9.968;2023-06-19T02:19:35;8.20;;;7.50;;
938;SDS011;456;53.584;9.968;2023-06-19T02:22:01;7.90;;;7.20;;
938;SDS011;456;53.584;9.968;2023-06-19T02:24:26;7.70;;;7.10;;
938;SDS011;456;53.584;9.968;2023-06-19T02:26:52;8.13;;;7.47;;
938;SDS011;456;53.584;9.968;2023-06-19T02:29:17;8.17;;;7.47;;
938;SDS011;456;53.584;9.968;2023-06-19T02:31:44;8.50;;;7.80;;
938;SDS011;456;53.584;9.968;2023-06-19T02:34:09;9.00;;;8.23;;
938;SDS011;456;53.584;9.968;2023-06-19T02:36:35;8.40;;;7.73;;
938;SDS011;456;53.584;9.968;2023-06-19T02:39:01;9.17;;;8.47;;
938;SDS011;456;53.584;9.968;2023-06-19T02:41:29;8.60;;;7.90;;
938;SDS011;456;53.584;9.968;2023-06-19T02:43:54;9.37;;;8.47;;
938;SDS011;456;53.584;9.968;2023-06-19T02:46:20;8.50;;;7.80;;
938;SDS011;456;53.584;9.968;2023-06-19T02:48:45;9.30;;;8.60;;
938;SDS011;456;53.584;9.968;2023-06-19T02:51:11;9.07;;;8.23;;
938;SDS011;456;53.584;9.968;2023-06-19T02:53:36;9.50;;;8.70;;
938;SDS011;456;53.584;9.968;2023-06-19T02:56:02;8.90;;;8.10;;
938;SDS011;456;53.584;9.968;2023-06-19T02:58:28;9.50;;;8.70;;
938;SDS011;456;53.584;9.968;2023-06-19T03:00:54;9.10;;;8.40;;
938;SDS011;456;53.584;9.968;2023-06-19T03:03:20;8.43;;;7.73;;
938;SDS011;456;53.584;9.968;2023-06-19T03:05:45;9.63;;;8.83;;
938;SDS011;456;53.584;9.968;2023-06-19T03:08:11;8.80;;;8.17;;
938;SDS011;456;53.584;9.968;2023-06-19T03:10:36;8.33;;;7.73;;
938;SDS011;456;53.584;9.968;2023-06-19T03:13:02;9.17;;;8.37;;
938;SDS011;456;53.584;9.968;2023-06-19T03:15:27;9.30;;;8.40;;
938;SDS011;456;53.584;9.968;2023-06-19T03:17:53;10.20;;;9.40;;
938;SDS011;456;53.584;9.968;2023-06-19T03:20:19;9.50;;;8.70;;
938;SDS011;456;53.584;9.968;2023-06-19T03:22:45;10.23;;;9.33;;
938;SDS011;456;53.584;9.968;2023-06-19T03:25:12;9.17;;;8.37;;
938;SDS011;456;53.584;9.968;2023-06-19T03:27:37;8.83;;;8.13;;
938;SDS011;456;53.584;9.968;2023-06-19T03:30:04;9.93;;;9.13;;
938;SDS011;456;53.584;9.968;2023-06-19T03:32:31;9.50;;;8.70;;
938;SDS011;456;53.584;9.968;2023-06-19T03:34:58;9.57;;;8.83;;
938;SDS011;456;53.584;9.968;2023-06-19T03:37:24;9.00;;;8.20;;
938;SDS011;456;53.584;9.968;2023-06-19T03:39:49;10.30;;;9.50;;
938;SDS011;456;53.584;9.968;2023-06-19T03:42:15;9.37;;;8.57;;
938;SDS011;456;53.584;9.968;2023-06-19T03:44:40;9.80;;;9.00;;
938;SDS011;456;53.584;9.968;2023-06-19T03:47:06;9.90;;;9.10;;
938;SDS011;456;53.584;9.968;2023-06-19T03:49:32;8.97;;;8.27;;
938;SDS011;456;53.584;9.968;2023-06-19T03:51:57;9.20;;;8.40;;
938;SDS011;456;53.584;9.968;2023-06-19T03:54:23;10.10;;;9.20;;
938;SDS011;456;53.584;9.968;2023-06-19T03:56:50;10.57;;;9.77;;
938;SDS011;456;53.584;9.968;2023-06-19T03:59:16;9.57;;;8.77;;
938;SDS011;456;53.584;9.968;2023-06-19T04:01:41;10.40;;;9.50;;
938;SDS011;456;53.584;9.968;2023-06-19T04:04:07;9.53;;;8.77;;
938;SDS011;456;53.584;9.968;2023-06-19T04:06:33;9.87;;;9.00;;
938;SDS011;456;53.584;9.968;2023-06-19T04:08:58;9.20;;;8.40;;
938;SDS011;456;53.584;9.968;2023-06-19T04:11:24;10.80;;;9.90;;
938;SDS011;456;53.584;9.968;2023-06-19T04:13:50;10.27;;;9.47;;
938;SDS011;456;53.584;9.968;2023-06-19T04:16:15;10.07;;;9.17;;
938;SDS011;456;53.584;9.968;2023-06-19T04:18:41;10.00;;;9.23;;
938;SDS011;456;53.584;9.968;2023-06-19T04:21:06;10.90;;;10.03;;
938;SDS011;456;53.584;9.968;2023-06-19T04:23:32;9.40;;;8.70;;
938;SDS011;456;53.584;9.968;2023-06-19T04:25:58;10.27;;;9.43;;
938;SDS011;456;53.584;9.968;2023-06-19T04:28:23;10.93;;;9.97;;
938;SDS011;456;53.584;9.968;2023-06-19T04:30:49;9.80;;;8.97;;
938;SDS011;456;53.584;9.968;2023-06-19T04:33:14;10.00;;;9.20;;
938;SDS011;456;53.584;9.968;2023-06-19T04:35:40;9.60;;;8.90;;
938;SDS011;456;53.584;9.968;2023-06-19T04:38:06;9.93;;;9.13;;
938;SDS011;456;53.584;9.968;2023-06-19T04:40:32;10.20;;;9.40;;
938;SDS011;456;53.584;9.968;2023-06-19T04:42:59;11.53;;;10.47;;
938;SDS011;456;53.584;9.968;2023-06-19T04:45:25;10.03;;;9.23;;
938;SDS011;456;53.584;9.968;2023-06-19T04:47:51;10.13;;;9.33;;
938;SDS011;456;53.584;9.968;2023-06-19T04:50:16;10.50;;;9.70;;
938;SDS011;456;53.584;9.968;2023-06-19T04:52:42;9.93;;;9.23;;
938;SDS011;456;53.584;9.968;2023-06-19T04:55:07;11.00;;;10.10;;
938;SDS011;456;53.584;9.968;2023-06-19T04:57:36;10.10;;;9.30;;
938;SDS011;456;53.584;9.968;2023-06-19T05:00:05;10.10;;;9.20;;
938;SDS011;456;53.584;9.968;2023-06-19T05:02:32;10.17;;;9.17;;
938;SDS011;456;53.584;9.968;2023-06-19T05:04:58;11.27;;;10.27;;
938;SDS011;456;53.584;9.968;2023-06-19T05:07:28;10.40;;;9.50;;
938;SDS011;456;53.584;9.968;2023-06-19T05:09:57;10.50;;;9.70;;
938;SDS011;456;53.584;9.968;2023-06-19T05:12:23;11.10;;;10.10;;
938;SDS011;456;53.584;9.968;2023-06-19T05:14:49;10.77;;;9.73;;
938;SDS011;456;53.584;9.968;2023-06-19T05:17:15;11.20;;;10.40;;
938;SDS011;456;53.584;9.968;2023-06-19T05:19:41;11.63;;;10.63;;
938;SDS011;456;53.584;9.968;2023-06-19T05:22:06;11.27;;;10.30;;
938;SDS011;456;53.584;9.968;2023-06-19T05:24:32;11.00;;;10.10;;
938;SDS011;456;53.584;9.968;2023-06-19T05:26:58;9.73;;;9.03;;
938;SDS011;456;53.584;9.968;2023-06-19T05:29:23;10.47;;;9.60;;
938;SDS011;456;53.584;9.968;2023-06-19T05:31:50;11.23;;;10.13;;
938;SDS011;456;53.584;9.968;2023-06-19T05:34:16;10.97;;;10.07;;
938;SDS011;456;53.584;9.968;2023-06-19T05:36:42;10.87;;;10.07;;
938;SDS011;456;53.584;9.968;2023-06-19T05:39:10;11.50;;;10.57;;
938;SDS011;456;53.584;9.968;2023-06-19T05:41:35;11.00;;;10.10;;
938;SDS011;456;53.584;9.968;2023-06-19T05:44:01;11.17;;;10.27;;
938;SDS011;456;53.584;9.968;2023-06-19T05:46:27;10.00;;;9.20;;
938;SDS011;456;53.584;9.968;2023-06-19T05:48:52;11.67;;;10.47;;
938;SDS011;456;53.584;9.968;2023-06-19T05:51:19;10.07;;;9.27;;
938;SDS011;456;53.584;9.968;2023-06-19T05:53:45;10.97;;;10.07;;
938;SDS011;456;53.584;9.968;2023-06-19T05:56:11;10.67;;;9.77;;
938;SDS011;456;53.584;9.968;2023-06-19T05:58:37;11.57;;;10.43;;
938;SDS011;456;53.584;9.968;2023-06-19T06:01:03;11.40;;;10.40;;
938;SDS011;456;53.584;9.968;2023-06-19T06:03:29;11.20;;;10.27;;
938;SDS011;456;53.584;9.968;2023-06-19T06:05:55;10.53;;;9.73;;
938;SDS011;456;53.584;9.968;2023-06-19T06:08:27;9.73;;;9.03;;
938;SDS011;456;53.584;9.968;2023-06-19T06:10:54;10.60;;;9.70;;
938;SDS011;456;53.584;9.968;2023-06-19T06:13:19;10.50;;;9.60;;
938;SDS011;456;53.584;9.968;2023-06-19T06:15:45;11.10;;;10.20;;
938;SDS011;456;53.584;9.968;2023-06-19T06:18:10;10.20;;;9.23;;
938;SDS011;456;53.584;9.968;2023-06-19T06:20:36;10.77;;;9.93;;
938;SDS011;456;53.584;9.968;2023-06-19T06:23:01;10.70;;;9.60;;
938;SDS011;456;53.584;9.968;2023-06-19T06:25:28;10.57;;;9.67;;
938;SDS011;456;53.584;9.968;2023-06-19T06:27:54;10.50;;;9.60;;
938;SDS011;456;53.584;9.968;2023-06-19T06:30:19;10.33;;;9.43;;
938;SDS011;456;53.584;9.968;2023-06-19T06:32:45;10.77;;;9.87;;
938;SDS011;456;53.584;9.968;2023-06-19T06:35:10;11.50;;;10.50;;
938;SDS011;456;53.584;9.968;2023-06-19T06:37:36;11.43;;;10.53;;
938;SDS011;456;53.584;9.968;2023-06-19T06:40:01;10.57;;;9.57;;
938;SDS011;456;53.584;9.968;2023-06-19T06:42:30;10.03;;;9.23;;
938;SDS011;456;53.584;9.968;2023-06-19T06:44:55;10.03;;;9.17;;
938;SDS011;456;53.584;9.968;2023-06-19T06:47:21;10.20;;;9.30;;
938;SDS011;456;53.584;9.968;2023-06-19T06:49:46;10.30;;;9.50;;
938;SDS011;456;53.584;9.968;2023-06-19T06:52:12;11.13;;;10.23;;
938;SDS011;456;53.584;9.968;2023-06-19T06:54:38;10.27;;;9.50;;
938;SDS011;456;53.584;9.968;2023-06-19T06:57:03;11.13;;;10.23;;
938;SDS011;456;53.584;9.968;2023-06-19T06:59:30;10.40;;;9.60;;
938;SDS011;456;53.584;9.968;2023-06-19T07:01:55;9.97;;;9.23;;
938;SDS011;456;53.584;9.968;2023-06-19T07:04:21;10.20;;;9.40;;
938;SDS011;456;53.584;9.968;2023-06-19T07:06:47;10.23;;;9.33;;
938;SDS011;456;53.584;9.968;2023-06-19T07:09:13;10.80;;;10.00;;
938;SDS011;456;53.584;9.968;2023-06-19T07:11:40;10.20;;;9.40;;
938;SDS011;456;53.584;9.968;2023-06-19T07:14:05;9.80;;;9.00;;
938;SDS011;456;53.584;9.968;2023-06-19T07:16:31;10.20;;;9.30;;
938;SDS011;456;53.584;9.968;2023-06-19T07:18:57;10.10;;;9.40;;
938;SDS011;456;53.584;9.968;2023-06-19T07:21:22;9.50;;;8.80;;
938;SDS011;456;53.584;9.968;2023-06-19T07:23:48;10.73;;;9.93;;
938;SDS011;456;53.584;9.968;2023-06-19T07:26:14;9.97;;;9.17;;
938;SDS011;456;53.584;9.968;2023-06-19T07:28:40;10.40;;;9.60;;
938;SDS011;456;53.584;9.968;2023-06-19T07:31:06;11.43;;;10.53;;
938;SDS011;456;53.584;9.968;2023-06-19T07:33:33;10.93;;;10.03;;
938;SDS011;456;53.584;9.968;2023-06-19T07:35:58;11.13;;;10.23;;
938;SDS011;456;53.584;9.968;2023-06-19T07:38:24;10.50;;;9.70;;
938;SDS011;456;53.584;9.968;2023-06-19T07:40:49;11.33;;;10.40;;
938;SDS011;456;53.584;9.968;2023-06-19T07:43:16;11.40;;;10.40;;
938;SDS011;456;53.584;9.968;2023-06-19T07:45:42;10.93;;;9.93;;
938;SDS011;456;53.584;9.968;2023-06-19T07:48:08;10.13;;;9.33;;
938;SDS011;456;53.584;9.968;2023-06-19T07:50:33;10.50;;;9.30;;
938;SDS011;456;53.584;9.968;2023-06-19T07:52:59;10.30;;;9.40;;
938;SDS011;456;53.584;9.968;2023-06-19T07:55:24;9.90;;;8.93;;
938;SDS011;456;53.584;9.968;2023-06-19T07:57:50;11.63;;;10.60;;
938;SDS011;456;53.584;9.968;2023-06-19T08:00:17;9.33;;;8.57;;
938;SDS011;456;53.584;9.968;2023-06-19T08:02:43;9.83;;;9.03;;
938;SDS011;456;53.584;9.968;2023-06-19T08:05:09;9.97;;;9.17;;
938;SDS011;456;53.584;9.968;2023-06-19T08:07:35;10.57;;;9.67;;
938;SDS011;456;53.584;9.968;2023-06-19T08:10:02;9.57;;;8.77;;
938;SDS011;456;53.584;9.968;2023-06-19T08:12:29;11.20;;;10.20;;
938;SDS011;456;53.584;9.968;2023-06-19T08:14:55;9.53;;;8.77;;
938;SDS011;456;53.584;9.968;2023-06-19T08:17:20;9.17;;;8.47;;
938;SDS011;456;53.584;9.968;2023-06-19T08:19:46;10.40;;;9.50;;
938;SDS011;456;53.584;9.968;2023-06-19T08:22:12;10.10;;;9.23;;
938;SDS011;456;53.584;9.968;2023-06-19T08:24:38;10.43;;;9.57;;
938;SDS011;456;53.584;9.968;2023-06-19T08:27:06;10.50;;;9.63;;
938;SDS011;456;53.584;9.968;2023-06-19T08:29:32;9.30;;;8.60;;
938;SDS011;456;53.584;9.968;2023-06-19T08:31:58;9.30;;;8.57;;
938;SDS011;456;53.584;9.968;2023-06-19T08:34:24;9.57;;;8.87;;
938;SDS011;456;53.584;9.968;2023-06-19T08:36:50;8.33;;;7.63;;
938;SDS011;456;53.584;9.968;2023-06-19T08:39:15;9.20;;;8.50;;
938;SDS011;456;53.584;9.968;2023-06-19T08:41:41;8.90;;;8.20;;
938;SDS011;456;53.584;9.968;2023-06-19T08:44:07;9.93;;;9.13;;
938;SDS011;456;53.584;9.968;2023-06-19T08:46:33;9.77;;;8.97;;
938;SDS011;456;53.584;9.968;2023-06-19T08:49:01;9.67;;;8.87;;
938;SDS011;456;53.584;9.968;2023-06-19T08:51:28;9.70;;;8.90;;
938;SDS011;456;53.584;9.968;2023-06-19T08:54:04;9.30;;;8.50;;
938;SDS011;456;53.584;9.968;2023-06-19T08:56:30;10.23;;;9.37;;
938;SDS011;456;53.584;9.968;2023-06-19T08:59:11;9.80;;;9.00;;
938;SDS011;456;53.584;9.968;2023-06-19T09:01:46;9.30;;;8.53;;
938;SDS011;456;53.584;9.968;2023-06-19T09:04:17;10.07;;;9.27;;
938;SDS011;456;53.584;9.968;2023-06-19T09:06:50;8.97;;;8.23;;
938;SDS011;456;53.584;9.968;2023-06-19T09:09:17;9.27;;;8.37;;
938;SDS011;456;53.584;9.968;2023-06-19T09:11:56;9.10;;;8.40;;
938;SDS011;456;53.584;9.968;2023-06-19T09:14:34;8.33;;;7.73;;
938;SDS011;456;53.584;9.968;2023-06-19T09:17:04;9.07;;;8.47;;
938;SDS011;456;53.584;9.968;2023-06-19T09:19:32;13.63;;;9.20;;
938;SDS011;456;53.584;9.968;2023-06-19T09:22:08;10.20;;;9.17;;
938;SDS011;456;53.584;9.968;2023-06-19T09:24:40;9.20;;;8.40;;
938;SDS011;456;53.584;9.968;2023-06-19T09:27:13;9.70;;;8.80;;
938;SDS011;456;53.584;9.968;2023-06-19T09:29:43;11.17;;;8.20;;
938;SDS011;456;53.584;9.968;2023-06-19T09:32:20;9.03;;;8.33;;
938;SDS011;456;53.584;9.968;2023-06-19T09:34:48;8.60;;;7.80;;
938;SDS011;456;53.584;9.968;2023-06-19T09:37:16;8.77;;;7.97;;
938;SDS011;456;53.584;9.968;2023-06-19T09:39:56;9.70;;;8.87;;
938;SDS011;456;53.584;9.968;2023-06-19T09:42:27;9.37;;;8.43;;
938;SDS011;456;53.584;9.968;2023-06-19T09:44:58;8.70;;;8.00;;
938;SDS011;456;53.584;9.968;2023-06-19T09:47:27;9.10;;;8.40;;
938;SDS011;456;53.584;9.968;2023-06-19T09:49:56;8.73;;;8.03;;
938;SDS011;456;53.584;9.968;2023-06-19T09:52:23;9.00;;;8.20;;
938;SDS011;456;53.584;9.968;2023-06-19T09:54:50;8.57;;;7.87;;
938;SDS011;456;53.584;9.968;2023-06-19T09:57:16;8.13;;;7.50;;
938;SDS011;456;53.584;9.968;2023-06-19T09:59:43;8.60;;;7.90;;
938;SDS011;456;53.584;9.968;2023-06-19T10:02:10;8.17;;;7.47;;
938;SDS011;456;53.584;9.968;2023-06-19T10:04:43;9.80;;;8.90;;
938;SDS011;456;53.584;9.968;2023-06-19T10:07:25;8.07;;;7.47;;
938;SDS011;456;53.584;9.968;2023-06-19T10:10:07;7.57;;;6.90;;
938;SDS011;456;53.584;9.968;2023-06-19T10:12:40;8.17;;;7.47;;
938;SDS011;456;53.584;9.968;2023-06-19T10:15:18;8.70;;;8.00;;
938;SDS011;456;53.584;9.968;2023-06-19T10:18:01;7.90;;;7.33;;
938;SDS011;456;53.584;9.968;2023-06-19T10:25:31;8.00;;;7.40;;
938;SDS011;456;53.584;9.968;2023-06-19T10:27:58;8.30;;;7.40;;
938;SDS011;456;53.584;9.968;2023-06-19T10:30:24;8.13;;;7.50;;
938;SDS011;456;53.584;9.968;2023-06-19T10:32:50;9.23;;;8.40;;
938;SDS011;456;53.584;9.968;2023-06-19T10:35:17;7.90;;;7.23;;
938;SDS011;456;53.584;9.968;2023-06-19T10:37:43;8.97;;;8.17;;
938;SDS011;456;53.584;9.968;2023-06-19T10:40:11;8.37;;;7.63;;
938;SDS011;456;53.584;9.968;2023-06-19T10:42:37;8.47;;;7.77;;
938;SDS011;456;53.584;9.968;2023-06-19T10:45:08;8.07;;;7.40;;
938;SDS011;456;53.584;9.968;2023-06-19T10:47:37;7.57;;;6.97;;
938;SDS011;456;53.584;9.968;2023-06-19T10:50:04;8.60;;;7.70;;
938;SDS011;456;53.584;9.968;2023-06-19T10:52:40;7.77;;;7.17;;
938;SDS011;456;53.584;9.968;2023-06-19T10:55:09;7.87;;;7.27;;
938;SDS011;456;53.584;9.968;2023-06-19T10:57:36;8.50;;;7.80;;
938;SDS011;456;53.584;9.968;2023-06-19T11:00:03;8.13;;;7.53;;
938;SDS011;456;53.584;9.968;2023-06-19T11:02:36;7.43;;;6.83;;
938;SDS011;456;53.584;9.968;2023-06-19T11:05:04;8.10;;;7.40;;
938;SDS011;456;53.584;9.968;2023-06-19T11:07:31;8.03;;;7.40;;
938;SDS011;456;53.584;9.968;2023-06-19T11:09:57;7.87;;;7.23;;
938;SDS011;456;53.584;9.968;2023-06-19T11:12:23;8.50;;;7.80;;
938;SDS011;456;53.584;9.968;2023-06-19T11:14:48;8.53;;;7.83;;
938;SDS011;456;53.584;9.968;2023-06-19T11:17:15;7.43;;;6.73;;
938;SDS011;456;53.584;9.968;2023-06-19T11:19:43;7.60;;;7.00;;
938;SDS011;456;53.584;9.968;2023-06-19T11:22:09;7.50;;;6.90;;
938;SDS011;456;53.584;9.968;2023-06-19T11:24:36;6.90;;;6.40;;
938;SDS011;456;53.584;9.968;2023-06-19T11:27:01;7.77;;;7.17;;
938;SDS011;456;53.584;9.968;2023-06-19T11:29:31;7.60;;;7.00;;
938;SDS011;456;53.584;9.968;2023-06-19T11:32:08;7.33;;;6.73;;
938;SDS011;456;53.584;9.968;2023-06-19T11:34:36;7.73;;;7.13;;
938;SDS011;456;53.584;9.968;2023-06-19T11:37:02;7.10;;;6.60;;
938;SDS011;456;53.584;9.968;2023-06-19T11:39:43;7.27;;;6.67;;
938;SDS011;456;53.584;9.968;2023-06-19T11:42:09;8.00;;;7.30;;
938;SDS011;456;53.584;9.968;2023-06-19T11:44:35;7.73;;;7.03;;
938;SDS011;456;53.584;9.968;2023-06-19T11:47:18;7.40;;;6.80;;
938;SDS011;456;53.584;9.968;2023-06-19T11:49:43;8.40;;;7.63;;
938;SDS011;456;53.584;9.968;2023-06-19T11:52:13;7.67;;;7.00;;
938;SDS011;456;53.584;9.968;2023-06-19T11:54:38;7.23;;;6.63;;
938;SDS011;456;53.584;9.968;2023-06-19T11:57:04;7.53;;;6.93;;
938;SDS011;456;53.584;9.968;2023-06-19T11:59:30;7.40;;;6.80;;
938;SDS011;456;53.584;9.968;2023-06-19T12:01:55;6.90;;;6.30;;
938;SDS011;456;53.584;9.968;2023-06-19T12:04:23;6.77;;;6.17;;
938;SDS011;456;53.584;9.968;2023-06-19T12:06:49;8.13;;;7.33;;
938;SDS011;456;53.584;9.968;2023-06-19T12:09:14;6.77;;;6.27;;
938;SDS011;456;53.584;9.968;2023-06-19T12:11:40;8.43;;;7.73;;
938;SDS011;456;53.584;9.968;2023-06-19T12:14:06;8.00;;;7.30;;
938;SDS011;456;53.584;9.968;2023-06-19T12:16:31;6.67;;;6.07;;
938;SDS011;456;53.584;9.968;2023-06-19T12:18:57;7.93;;;7.23;;
938;SDS011;456;53.584;9.968;2023-06-19T12:21:23;7.37;;;6.67;;
938;SDS011;456;53.584;9.968;2023-06-19T12:23:48;8.10;;;7.43;;
938;SDS011;456;53.584;9.968;2023-06-19T12:26:14;7.43;;;6.63;;
938;SDS011;456;53.584;9.968;2023-06-19T12:28:40;7.60;;;7.00;;
938;SDS011;456;53.584;9.968;2023-06-19T12:31:05;7.00;;;6.40;;
938;SDS011;456;53.584;9.968;2023-06-19T12:33:31;7.13;;;6.60;;
938;SDS011;456;53.584;9.968;2023-06-19T12:35:57;6.60;;;6.10;;
938;SDS011;456;53.584;9.968;2023-06-19T12:38:23;6.80;;;6.20;;
938;SDS011;456;53.584;9.968;2023-06-19T12:40:49;7.33;;;6.73;;
938;SDS011;456;53.584;9.968;2023-06-19T12:43:14;6.73;;;6.23;;
938;SDS011;456;53.584;9.968;2023-06-19T12:45:40;6.33;;;5.83;;
938;SDS011;456;53.584;9.968;2023-06-19T12:48:06;7.20;;;6.60;;
938;SDS011;456;53.584;9.968;2023-06-19T12:50:32;6.60;;;6.10;;
938;SDS011;456;53.584;9.968;2023-06-19T12:52:58;6.63;;;6.13;;
938;SDS011;456;53.584;9.968;2023-06-19T12:55:23;6.63;;;6.00;;
938;SDS011;456;53.584;9.968;2023-06-19T12:57:49;6.50;;;5.93;;
938;SDS011;456;53.584;9.968;2023-06-19T13:00:14;6.77;;;6.17;;
938;SDS011;456;53.584;9.968;2023-06-19T13:02:41;6.90;;;6.30;;
938;SDS011;456;53.584;9.968;2023-06-19T13:05:08;6.33;;;5.80;;
938;SDS011;456;53.584;9.968;2023-06-19T13:07:34;6.00;;;5.60;;
938;SDS011;456;53.584;9.968;2023-06-19T13:10:00;7.07;;;6.47;;
938;SDS011;456;53.584;9.968;2023-06-19T13:12:26;6.97;;;6.37;;
938;SDS011;456;53.584;9.968;2023-06-19T13:14:51;6.47;;;5.97;;
938;SDS011;456;53.584;9.968;2023-06-19T13:17:17;6.80;;;6.20;;
938;SDS011;456;53.584;9.968;2023-06-19T13:19:43;5.87;;;5.37;;
938;SDS011;456;53.584;9.968;2023-06-19T13:22:09;6.10;;;5.50;;
938;SDS011;456;53.584;9.968;2023-06-19T13:24:34;6.70;;;6.10;;
938;SDS011;456;53.584;9.968;2023-06-19T13:27:01;5.70;;;5.30;;
938;SDS011;456;53.584;9.968;2023-06-19T13:29:27;5.93;;;5.43;;
938;SDS011;456;53.584;9.968;2023-06-19T13:31:53;6.57;;;5.97;;
938;SDS011;456;53.584;9.968;2023-06-19T13:34:18;6.47;;;5.87;;
938;SDS011;456;53.584;9.968;2023-06-19T13:36:46;6.00;;;5.50;;
938;SDS011;456;53.584;9.968;2023-06-19T13:39:12;6.73;;;6.13;;
938;SDS011;456;53.584;9.968;2023-06-19T13:41:38;5.43;;;5.03;;
938;SDS011;456;53.584;9.968;2023-06-19T13:44:04;5.67;;;5.20;;
938;SDS011;456;53.584;9.968;2023-06-19T13:46:29;5.27;;;4.77;;
938;SDS011;456;53.584;9.968;2023-06-19T13:48:56;6.03;;;5.53;;
938;SDS011;456;53.584;9.968;2023-06-19T13:51:22;5.73;;;5.33;;
938;SDS011;456;53.584;9.968;2023-06-19T13:53:48;5.23;;;4.83;;
938;SDS011;456;53.584;9.968;2023-06-19T13:56:15;6.00;;;5.50;;
938;SDS011;456;53.584;9.968;2023-06-19T13:58:40;6.17;;;5.67;;
938;SDS011;456;53.584;9.968;2023-06-19T14:01:06;5.13;;;4.73;;
938;SDS011;456;53.584;9.968;2023-06-19T14:03:32;4.93;;;4.53;;
938;SDS011;456;53.584;9.968;2023-06-19T14:05:58;4.93;;;4.53;;
938;SDS011;456;53.584;9.968;2023-06-19T14:08:24;5.30;;;4.90;;
938;SDS011;456;53.584;9.968;2023-06-19T14:10:50;6.20;;;5.70;;
938;SDS011;456;53.584;9.968;2023-06-19T14:13:16;5.47;;;4.97;;
938;SDS011;456;53.584;9.968;2023-06-19T14:15:41;5.60;;;5.10;;
938;SDS011;456;53.584;9.968;2023-06-19T14:18:07;5.10;;;4.70;;
938;SDS011;456;53.584;9.968;2023-06-19T14:20:33;4.70;;;4.30;;
938;SDS011;456;53.584;9.968;2023-06-19T14:22:59;6.03;;;5.53;;
938;SDS011;456;53.584;9.968;2023-06-19T14:25:24;5.17;;;4.77;;
938;SDS011;456;53.584;9.968;2023-06-19T14:27:50;4.67;;;4.33;;
938;SDS011;456;53.584;9.968;2023-06-19T14:30:16;5.10;;;4.70;;
938;SDS011;456;53.584;9.968;2023-06-19T14:32:41;5.10;;;4.70;;
938;SDS011;456;53.584;9.968;2023-06-19T14:35:07;4.10;;;3.80;;
938;SDS011;456;53.584;9.968;2023-06-19T14:37:32;4.77;;;4.37;;
938;SDS011;456;53.584;9.968;2023-06-19T14:39:58;4.50;;;4.20;;
938;SDS011;456;53.584;9.968;2023-06-19T14:42:24;4.47;;;4.10;;
938;SDS011;456;53.584;9.968;2023-06-19T14:44:50;4.97;;;4.57;;
938;SDS011;456;53.584;9.968;2023-06-19T14:47:15;4.87;;;4.47;;
938;SDS011;456;53.584;9.968;2023-06-19T14:49:41;4.87;;;4.47;;
938;SDS011;456;53.584;9.968;2023-06-19T14:52:07;5.13;;;4.73;;
938;SDS011;456;53.584;9.968;2023-06-19T14:54:33;4.83;;;4.43;;
938;SDS011;456;53.584;9.968;2023-06-19T14:56:58;4.70;;;4.30;;
938;SDS011;456;53.584;9.968;2023-06-19T14:59:24;4.43;;;4.10;;
938;SDS011;456;53.584;9.968;2023-06-19T15:01:50;5.13;;;4.73;;
938;SDS011;456;53.584;9.968;2023-06-19T15:04:16;4.93;;;4.53;;
938;SDS011;456;53.584;9.968;2023-06-19T15:06:41;4.67;;;4.27;;
938;SDS011;456;53.584;9.968;2023-06-19T15:09:07;3.67;;;3.37;;
938;SDS011;456;53.584;9.968;2023-06-19T15:11:33;4.30;;;4.00;;
938;SDS011;456;53.584;9.968;2023-06-19T15:13:59;4.17;;;3.87;;
938;SDS011;456;53.584;9.968;2023-06-19T15:16:25;4.77;;;4.37;;
938;SDS011;456;53.584;9.968;2023-06-19T15:18:51;4.50;;;4.10;;
938;SDS011;456;53.584;9.968;2023-06-19T15:21:17;4.20;;;3.87;;
938;SDS011;456;53.584;9.968;2023-06-19T15:23:42;4.40;;;4.10;;
938;SDS011;456;53.584;9.968;2023-06-19T15:26:08;4.33;;;4.03;;
938;SDS011;456;53.584;9.968;2023-06-19T15:28:34;4.40;;;4.00;;
938;SDS011;456;53.584;9.968;2023-06-19T15:31:00;4.40;;;4.10;;
938;SDS011;456;53.584;9.968;2023-06-19T15:33:26;4.50;;;4.10;;
938;SDS011;456;53.584;9.968;2023-06-19T15:35:52;4.50;;;4.13;;
938;SDS011;456;53.584;9.968;2023-06-19T15:38:17;4.43;;;4.03;;
938;SDS011;456;53.584;9.968;2023-06-19T15:40:43;4.47;;;4.07;;
938;SDS011;456;53.584;9.968;2023-06-19T15:43:08;4.20;;;3.90;;
938;SDS011;456;53.584;9.968;2023-06-19T15:45:34;4.17;;;3.87;;